Time;durP1;ratioP1;P1;durP2;ratioP2;P2;SDS_P1;SDS_P2;PMS_P1;PMS_P2;Temp;Humidity;BMP_temperature;BMP_pressure;BME280_temperature;BME280_humidity;BME280_pressure;Samples;Min_cycle;Max_cycle;Signal;HPM_P1;HPM_P2
2023/06/01 00:01:53;;;;;;;11.68;5.03;;;13.10;99.90;;;;;;5134948;27;20050;-59
2023/06/01 00:04:19;;;;;;;13.88;4.63;;;13.10;99.90;;;;;;5115672;27;20079;-58
2023/06/01 00:06:45;;;;;;;12.55;4.50;;;13.10;99.90;;;;;;5134751;27;20103;-60
2023/06/01 00:09:10;;;;;;;14.45;5.07;;;13.10;99.90;;;;;;5135040;27;20134;-59
2023/06/01 00:11:36;;;;;;;14.30;4.57;;;13.10;99.90;;;;;;5135123;27;20035;-58
2023/06/01 00:14:03;;;;;;;11.10;4.43;;;13.00;99.90;;;;;;5134752;27;20039;-59
2023/06/01 00:16:31;;;;;;;12.60;4.25;;;13.00;99.90;;;;;;5134544;27;20404;-59
2023/06/01 00:19:00;;;;;;;11.23;4.28;;;13.00;99.90;;;;;;5134697;27;20061;-59
2023/06/01 00:21:26;;;;;;;13.38;5.07;;;12.90;99.90;;;;;;5134478;27;20137;-59
2023/06/01 00:23:52;;;;;;;14.77;4.63;;;12.90;99.90;;;;;;5134233;27;20046;-59
2023/06/01 00:26:18;;;;;;;13.88;5.57;;;12.80;99.90;;;;;;5134813;27;20058;-59
2023/06/01 00:28:43;;;;;;;16.10;4.82;;;12.80;99.90;;;;;;5134699;27;20035;-59
2023/06/01 00:31:09;;;;;;;15.63;5.07;;;12.90;99.90;;;;;;5134121;27;20069;-58
2023/06/01 00:33:34;;;;;;;12.45;5.75;;;12.80;99.90;;;;;;5134323;27;20039;-58
2023/06/01 00:36:01;;;;;;;15.05;4.80;;;12.70;99.90;;;;;;5134443;27;20041;-59
2023/06/01 00:38:27;;;;;;;11.65;4.70;;;12.70;99.90;;;;;;5134355;27;20126;-59
2023/06/01 00:40:53;;;;;;;12.32;6.25;;;12.70;99.90;;;;;;5115736;27;20463;-59
2023/06/01 00:43:19;;;;;;;12.88;4.53;;;12.60;99.90;;;;;;5134541;27;20163;-59
2023/06/01 00:45:45;;;;;;;12.38;5.53;;;12.70;99.90;;;;;;5134277;27;20031;-59
2023/06/01 00:48:12;;;;;;;13.23;4.57;;;12.70;99.90;;;;;;5133763;27;20031;-57
2023/06/01 00:50:38;;;;;;;11.40;5.35;;;12.70;99.90;;;;;;5133536;27;20036;-58
2023/06/01 00:53:08;;;;;;;11.95;4.53;;;12.70;99.90;;;;;;5132526;27;20088;-58
2023/06/01 00:55:34;;;;;;;13.35;4.35;;;12.70;99.90;;;;;;5133224;27;20030;-58
2023/06/01 00:58:01;;;;;;;11.13;4.90;;;12.80;99.90;;;;;;5114140;27;20041;-58
2023/06/01 01:00:28;;;;;;;13.70;4.80;;;12.80;99.90;;;;;;5132763;27;20473;-58
2023/06/01 01:02:56;;;;;;;12.55;5.90;;;12.70;99.90;;;;;;5133636;27;20070;-57
2023/06/01 01:05:26;;;;;;;13.68;4.90;;;12.70;99.90;;;;;;5133685;27;20096;-60
2023/06/01 01:08:14;;;;;;;13.15;4.70;;;12.60;99.90;;;;;;5133850;27;20050;-58
2023/06/01 01:10:58;;;;;;;9.88;5.05;;;12.50;99.90;;;;;;5133844;27;20389;-59
2023/06/01 01:13:34;;;;;;;13.20;5.93;;;12.40;99.90;;;;;;5133759;27;20046;-59
2023/06/01 01:16:15;;;;;;;12.65;4.22;;;12.40;99.90;;;;;;5133932;27;20080;-58
2023/06/01 01:18:57;;;;;;;13.27;4.72;;;12.40;99.90;;;;;;5133687;27;20069;-58
2023/06/01 01:21:31;;;;;;;12.65;5.75;;;12.40;99.90;;;;;;5133708;27;20042;-59
2023/06/01 01:24:22;;;;;;;16.83;6.03;;;12.30;99.90;;;;;;5133245;27;20043;-59
2023/06/01 01:27:25;;;;;;;15.65;6.35;;;12.40;99.90;;;;;;5115009;27;20289;-58
2023/06/01 01:29:54;;;;;;;15.43;5.97;;;12.40;99.90;;;;;;5113495;27;20082;-58
2023/06/01 01:32:21;;;;;;;11.27;5.97;;;12.30;99.90;;;;;;5132428;27;20071;-58
2023/06/01 01:34:48;;;;;;;15.93;5.22;;;12.30;99.90;;;;;;5133138;27;20043;-58
2023/06/01 01:37:14;;;;;;;15.15;6.00;;;12.30;99.90;;;;;;5131667;27;20439;-59
2023/06/01 01:39:39;;;;;;;13.88;5.85;;;12.30;99.90;;;;;;5133176;27;20072;-60
2023/06/01 01:42:06;;;;;;;12.48;4.90;;;12.30;99.90;;;;;;5132713;27;20058;-58
2023/06/01 01:44:33;;;;;;;12.23;5.03;;;12.30;99.90;;;;;;5132895;27;20050;-59
2023/06/01 01:47:12;;;;;;;11.55;5.25;;;12.30;99.90;;;;;;5133039;27;20041;-58
2023/06/01 01:49:45;;;;;;;14.25;5.13;;;12.30;99.90;;;;;;5113419;27;20031;-58
2023/06/01 01:52:17;;;;;;;13.07;6.03;;;12.30;99.90;;;;;;5132647;27;20039;-57
2023/06/01 01:54:45;;;;;;;12.55;5.50;;;12.30;99.90;;;;;;5131752;27;20180;-59
2023/06/01 01:57:14;;;;;;;12.63;5.90;;;12.30;99.90;;;;;;5132199;27;20031;-59
2023/06/01 01:59:41;;;;;;;12.63;5.78;;;12.40;99.90;;;;;;5113899;27;20043;-58
2023/06/01 02:02:07;;;;;;;14.05;6.03;;;12.40;99.90;;;;;;5132339;27;20393;-58
2023/06/01 02:04:37;;;;;;;13.35;6.18;;;12.40;99.90;;;;;;5132200;27;20117;-58
2023/06/01 02:07:03;;;;;;;13.25;6.07;;;12.40;99.90;;;;;;5132128;27;20043;-59
2023/06/01 02:09:29;;;;;;;15.38;6.78;;;12.40;99.90;;;;;;5131578;27;20069;-58
2023/06/01 02:11:55;;;;;;;13.98;5.40;;;12.40;99.90;;;;;;5131635;27;20062;-58
2023/06/01 02:14:20;;;;;;;13.75;5.53;;;12.30;99.90;;;;;;5132381;27;20027;-59
2023/06/01 02:16:46;;;;;;;11.65;6.30;;;12.20;99.90;;;;;;5112872;27;20031;-58
2023/06/01 02:19:15;;;;;;;13.18;5.47;;;12.20;99.90;;;;;;5131694;27;20079;-59
2023/06/01 02:21:42;;;;;;;15.38;5.30;;;12.20;99.90;;;;;;5132384;27;20134;-59
2023/06/01 02:24:08;;;;;;;15.00;6.10;;;12.30;99.90;;;;;;5131545;27;20490;-58
2023/06/01 02:26:35;;;;;;;14.05;5.20;;;12.20;99.90;;;;;;5132504;27;20047;-58
2023/06/01 02:29:02;;;;;;;13.88;6.28;;;12.20;99.90;;;;;;5132205;27;20043;-58
2023/06/01 02:31:28;;;;;;;13.38;5.15;;;12.20;99.90;;;;;;5132037;27;20445;-59
2023/06/01 02:33:54;;;;;;;15.20;6.90;;;12.20;99.90;;;;;;5131894;27;20118;-59
2023/06/01 02:36:21;;;;;;;12.20;5.97;;;12.20;99.90;;;;;;5131753;27;20035;-59
2023/06/01 02:38:47;;;;;;;14.95;7.05;;;12.10;99.90;;;;;;5096698;27;20035;-58
2023/06/01 02:41:13;;;;;;;15.68;5.95;;;12.10;99.90;;;;;;5132331;27;20501;-59
2023/06/01 02:43:38;;;;;;;15.05;5.13;;;12.10;99.90;;;;;;5113205;27;20035;-58
2023/06/01 02:46:04;;;;;;;12.07;5.70;;;12.00;99.90;;;;;;5132161;27;20454;-58
2023/06/01 02:48:30;;;;;;;12.88;6.25;;;12.00;99.90;;;;;;5131877;27;20043;-58
2023/06/01 02:50:56;;;;;;;13.63;6.20;;;11.90;99.90;;;;;;5131865;27;20387;-60
2023/06/01 02:53:28;;;;;;;17.33;5.53;;;11.90;99.90;;;;;;5131314;27;20191;-59
2023/06/01 02:55:54;;;;;;;16.08;6.32;;;11.80;99.90;;;;;;5131994;27;20402;-58
2023/06/01 02:58:20;;;;;;;15.93;5.18;;;11.80;99.90;;;;;;5113143;27;20035;-58
2023/06/01 03:00:46;;;;;;;15.88;5.35;;;11.80;99.90;;;;;;5131630;27;20042;-58
2023/06/01 03:03:12;;;;;;;12.68;6.35;;;11.80;99.90;;;;;;5113223;27;20124;-59
2023/06/01 03:05:38;;;;;;;17.52;5.35;;;11.80;99.90;;;;;;5131745;27;20066;-59
2023/06/01 03:08:06;;;;;;;14.80;5.20;;;11.80;99.90;;;;;;5131477;27;20036;-58
2023/06/01 03:10:32;;;;;;;15.52;4.90;;;11.80;99.90;;;;;;5131469;28;20046;-58
2023/06/01 03:12:58;;;;;;;11.88;5.10;;;11.80;99.90;;;;;;5131409;27;20031;-58
2023/06/01 03:15:23;;;;;;;13.25;6.10;;;11.80;99.90;;;;;;5131772;28;20054;-59
2023/06/01 03:17:49;;;;;;;17.70;6.00;;;11.80;99.90;;;;;;5131453;28;20349;-58
2023/06/01 03:20:15;;;;;;;11.88;5.85;;;11.80;99.90;;;;;;5133271;27;20038;-58
2023/06/01 03:22:45;;;;;;;15.50;4.53;;;11.80;99.90;;;;;;5135436;27;20039;-58
2023/06/01 03:25:12;;;;;;;14.27;5.50;;;11.80;99.90;;;;;;5135548;27;20387;-60
2023/06/01 03:27:39;;;;;;;14.30;4.97;;;11.80;99.90;;;;;;5135466;27;20555;-59
2023/06/01 03:30:10;;;;;;;11.75;5.05;;;11.90;99.90;;;;;;5135643;27;20027;-60
2023/06/01 03:32:40;;;;;;;14.43;6.20;;;11.90;99.90;;;;;;5135732;27;20032;-59
2023/06/01 03:35:07;;;;;;;10.18;4.78;;;11.80;99.90;;;;;;5134891;27;20074;-59
2023/06/01 03:37:37;;;;;;;13.00;5.32;;;11.80;99.90;;;;;;5135557;27;20035;-59
2023/06/01 03:40:10;;;;;;;14.90;5.45;;;11.80;99.90;;;;;;5116737;27;20126;-58
2023/06/01 03:42:44;;;;;;;18.25;6.55;;;11.80;99.90;;;;;;5134859;27;20035;-58
2023/06/01 03:45:10;;;;;;;12.63;6.85;;;11.80;99.90;;;;;;5135077;27;20046;-58
2023/06/01 03:47:36;;;;;;;15.40;7.18;;;11.70;99.90;;;;;;5134798;27;20035;-60
2023/06/01 03:50:03;;;;;;;15.23;5.80;;;11.70;99.90;;;;;;5135131;27;20080;-59
2023/06/01 03:52:30;;;;;;;15.98;6.70;;;11.70;99.90;;;;;;5135401;27;20549;-57
2023/06/01 03:54:56;;;;;;;13.52;6.75;;;11.70;99.90;;;;;;5133108;27;20086;-58
2023/06/01 03:57:22;;;;;;;14.27;6.28;;;11.70;99.90;;;;;;5133549;27;20035;-59
2023/06/01 03:59:48;;;;;;;13.77;6.22;;;11.70;99.90;;;;;;5134695;27;20069;-57
2023/06/01 04:02:14;;;;;;;10.95;4.53;;;11.70;99.90;;;;;;5134693;27;20063;-59
2023/06/01 04:04:45;;;;;;;12.77;4.85;;;11.70;99.90;;;;;;5134843;27;20054;-58
2023/06/01 04:07:18;;;;;;;14.23;6.38;;;11.70;99.90;;;;;;5134438;27;20088;-59
2023/06/01 04:09:48;;;;;;;15.30;4.93;;;11.70;99.90;;;;;;5134651;27;20096;-58
2023/06/01 04:12:14;;;;;;;16.15;5.20;;;11.70;99.90;;;;;;5134429;27;20466;-59
2023/06/01 04:14:40;;;;;;;14.77;6.82;;;11.70;99.90;;;;;;5134980;27;20027;-58
2023/06/01 04:17:06;;;;;;;13.90;4.60;;;11.60;99.90;;;;;;5134767;27;20096;-59
2023/06/01 04:19:34;;;;;;;15.30;6.07;;;11.60;99.90;;;;;;5135397;27;20047;-59
2023/06/01 04:22:00;;;;;;;10.43;5.60;;;11.70;99.90;;;;;;5115991;27;20058;-58
2023/06/01 04:24:26;;;;;;;10.63;5.55;;;11.70;99.90;;;;;;5116397;27;20047;-58
2023/06/01 04:26:51;;;;;;;13.38;4.65;;;11.80;99.90;;;;;;5116237;27;20039;-60
2023/06/01 04:29:19;;;;;;;11.90;4.68;;;11.80;99.90;;;;;;5115992;27;20047;-59
2023/06/01 04:31:48;;;;;;;17.38;5.60;;;11.90;99.90;;;;;;5134465;27;20106;-58
2023/06/01 04:34:13;;;;;;;10.63;5.85;;;11.90;99.90;;;;;;5134658;27;20107;-58
2023/06/01 04:36:39;;;;;;;11.15;4.22;;;11.90;99.90;;;;;;5134466;27;20118;-59
2023/06/01 04:39:08;;;;;;;12.27;3.95;;;11.90;99.90;;;;;;5098995;27;20042;-59
2023/06/01 04:41:35;;;;;;;18.63;5.40;;;11.90;99.90;;;;;;5116146;27;20030;-58
2023/06/01 04:44:05;;;;;;;10.32;4.25;;;11.80;99.90;;;;;;5132713;27;20055;-58
2023/06/01 04:46:31;;;;;;;13.68;3.95;;;11.80;99.90;;;;;;5134301;27;20047;-59
2023/06/01 04:48:59;;;;;;;11.95;4.57;;;11.90;99.90;;;;;;5134087;27;20431;-59
2023/06/01 04:51:26;;;;;;;14.13;4.80;;;11.90;99.90;;;;;;5133788;27;20054;-58
2023/06/01 04:53:53;;;;;;;12.40;5.47;;;11.90;99.90;;;;;;5134112;27;20506;-59
2023/06/01 04:56:26;;;;;;;14.30;4.30;;;11.90;99.90;;;;;;5134016;27;20043;-59
2023/06/01 04:58:53;;;;;;;9.32;4.13;;;11.90;99.90;;;;;;5115979;27;20504;-58
2023/06/01 05:01:18;;;;;;;14.00;4.50;;;11.90;99.90;;;;;;5134113;27;20162;-58
2023/06/01 05:03:45;;;;;;;8.68;4.05;;;11.90;99.90;;;;;;5133836;27;20043;-59
2023/06/01 05:06:12;;;;;;;15.95;4.72;;;11.90;99.90;;;;;;5115486;27;20038;-57
2023/06/01 05:08:39;;;;;;;10.30;5.25;;;11.90;99.90;;;;;;5133731;27;20039;-57
2023/06/01 05:11:06;;;;;;;10.05;4.85;;;11.90;99.90;;;;;;5134071;27;20478;-58
2023/06/01 05:13:33;;;;;;;9.52;4.25;;;12.00;99.90;;;;;;5115395;27;20511;-59
2023/06/01 05:15:59;;;;;;;8.25;3.83;;;12.00;99.90;;;;;;5133978;27;20493;-58
2023/06/01 05:18:25;;;;;;;13.07;4.80;;;12.00;99.90;;;;;;5114626;27;20035;-58
2023/06/01 05:20:51;;;;;;;9.57;3.75;;;12.00;99.90;;;;;;5132412;27;20047;-58
2023/06/01 05:23:17;;;;;;;9.73;3.95;;;12.00;99.90;;;;;;5133223;27;20062;-58
2023/06/01 05:25:42;;;;;;;10.13;3.55;;;11.90;99.90;;;;;;5132750;27;20074;-58
2023/06/01 05:28:08;;;;;;;10.23;3.60;;;11.90;99.90;;;;;;5133278;27;20046;-58
2023/06/01 05:30:34;;;;;;;9.57;3.83;;;12.00;99.90;;;;;;5114771;27;20035;-59
2023/06/01 05:33:00;;;;;;;11.10;3.75;;;12.00;99.90;;;;;;5114691;27;20104;-58
2023/06/01 05:35:26;;;;;;;11.85;3.90;;;12.00;99.90;;;;;;5133039;27;20090;-58
2023/06/01 05:37:52;;;;;;;13.18;3.85;;;12.00;99.90;;;;;;5133175;27;20212;-58
2023/06/01 05:40:18;;;;;;;10.80;3.90;;;12.00;99.90;;;;;;5133014;27;20078;-58
2023/06/01 05:42:43;;;;;;;12.85;4.03;;;12.10;99.90;;;;;;5132296;27;20110;-58
2023/06/01 05:45:09;;;;;;;11.52;4.03;;;12.10;99.90;;;;;;5133280;27;20074;-57
2023/06/01 05:47:35;;;;;;;13.60;4.35;;;12.20;99.90;;;;;;5132656;27;20041;-59
2023/06/01 05:50:01;;;;;;;12.32;4.18;;;12.10;99.90;;;;;;5132768;27;20081;-56
2023/06/01 05:52:27;;;;;;;10.65;3.97;;;12.20;99.90;;;;;;5132307;27;20047;-58
2023/06/01 05:54:53;;;;;;;9.07;4.90;;;12.20;99.90;;;;;;5113857;27;20046;-57
2023/06/01 05:57:20;;;;;;;11.65;4.07;;;12.20;99.90;;;;;;5124689;27;20083;-57
2023/06/01 05:59:46;;;;;;;10.27;3.40;;;12.20;99.90;;;;;;5122462;27;20059;-58
2023/06/01 06:02:13;;;;;;;11.35;3.70;;;12.20;99.90;;;;;;5120518;27;20039;-58
2023/06/01 06:04:39;;;;;;;10.52;3.92;;;12.20;99.90;;;;;;5122659;27;20031;-58
2023/06/01 06:07:06;;;;;;;11.93;4.03;;;12.30;99.90;;;;;;5122349;27;20427;-58
2023/06/01 06:09:31;;;;;;;10.43;3.97;;;12.30;99.90;;;;;;5103854;27;20039;-57
2023/06/01 06:11:57;;;;;;;12.68;4.18;;;12.30;99.90;;;;;;5121690;27;20027;-58
2023/06/01 06:14:23;;;;;;;10.45;4.20;;;12.30;99.90;;;;;;5122433;27;20194;-59
2023/06/01 06:16:49;;;;;;;11.70;4.38;;;12.30;99.90;;;;;;5122465;27;20259;-57
2023/06/01 06:19:16;;;;;;;11.68;3.92;;;12.40;99.90;;;;;;5122119;27;20363;-59
2023/06/01 06:21:42;;;;;;;12.05;3.70;;;12.40;99.90;;;;;;5121886;27;20043;-58
2023/06/01 06:24:08;;;;;;;11.82;3.97;;;12.40;99.90;;;;;;5122443;27;20038;-57
2023/06/01 06:26:34;;;;;;;9.90;3.78;;;12.40;99.90;;;;;;5122271;27;20498;-57
2023/06/01 06:28:59;;;;;;;9.13;3.42;;;12.40;99.90;;;;;;5118649;27;20057;-58
2023/06/01 06:31:25;;;;;;;11.25;3.72;;;12.50;99.90;;;;;;5121955;27;20042;-59
2023/06/01 06:33:52;;;;;;;11.80;3.78;;;12.50;99.90;;;;;;5121996;27;20031;-58
2023/06/01 06:36:18;;;;;;;11.60;4.13;;;12.60;99.90;;;;;;5122445;27;20203;-58
2023/06/01 06:38:44;;;;;;;12.35;3.95;;;12.60;99.90;;;;;;5122664;27;20042;-58
2023/06/01 06:41:10;;;;;;;10.50;3.85;;;12.60;99.90;;;;;;5110786;27;20043;-58
2023/06/01 06:43:36;;;;;;;12.45;3.85;;;12.60;99.90;;;;;;5121682;27;20524;-59
2023/06/01 06:46:02;;;;;;;9.40;3.88;;;12.70;99.90;;;;;;5125797;27;20039;-58
2023/06/01 06:48:28;;;;;;;10.55;3.60;;;12.70;99.90;;;;;;5129167;27;20363;-58
2023/06/01 06:50:54;;;;;;;13.23;3.42;;;12.70;99.90;;;;;;5129194;27;20046;-59
2023/06/01 06:53:20;;;;;;;11.57;3.80;;;12.70;99.90;;;;;;5129577;27;20050;-58
2023/06/01 06:55:46;;;;;;;9.23;3.65;;;12.70;99.90;;;;;;5129408;27;20390;-58
2023/06/01 06:58:12;;;;;;;11.75;3.85;;;12.80;99.90;;;;;;5131040;27;20393;-58
2023/06/01 07:00:37;;;;;;;11.32;3.97;;;12.80;99.90;;;;;;5131412;27;20065;-58
2023/06/01 07:03:03;;;;;;;14.80;4.15;;;13.00;99.90;;;;;;5131546;27;20042;-58
2023/06/01 07:05:29;;;;;;;11.27;3.38;;;13.00;99.90;;;;;;5131121;27;20119;-58
2023/06/01 07:07:55;;;;;;;8.73;3.20;;;13.10;99.90;;;;;;5128600;27;20088;-57
2023/06/01 07:10:21;;;;;;;7.78;3.83;;;13.10;99.90;;;;;;5131070;28;20474;-57
2023/06/01 07:12:47;;;;;;;10.80;4.40;;;13.10;99.90;;;;;;5131015;28;20120;-59
2023/06/01 07:15:13;;;;;;;10.90;3.72;;;13.20;99.90;;;;;;5131605;28;20039;-58
2023/06/01 07:17:38;;;;;;;10.52;3.70;;;13.20;99.90;;;;;;5131243;28;20046;-58
2023/06/01 07:20:10;;;;;;;9.13;3.85;;;13.20;99.90;;;;;;5131137;28;20041;-57
2023/06/01 07:22:36;;;;;;;10.63;3.95;;;13.20;99.90;;;;;;5130815;28;20035;-59
2023/06/01 07:25:02;;;;;;;12.30;4.97;;;13.30;99.90;;;;;;5130596;28;20043;-58
2023/06/01 07:27:28;;;;;;;12.85;4.05;;;13.30;99.90;;;;;;5131260;28;20073;-57
2023/06/01 07:29:55;;;;;;;9.68;4.88;;;13.30;99.90;;;;;;5131077;28;20074;-60
2023/06/01 07:32:25;;;;;;;9.35;3.60;;;13.30;99.90;;;;;;5131132;28;20379;-57
2023/06/01 07:34:51;;;;;;;10.10;3.70;;;13.30;99.90;;;;;;5129788;28;20505;-59
2023/06/01 07:37:21;;;;;;;10.80;3.72;;;13.40;99.90;;;;;;5131044;28;20088;-58
2023/06/01 07:39:48;;;;;;;7.55;3.53;;;13.30;99.90;;;;;;5130910;28;20086;-58
2023/06/01 07:42:14;;;;;;;12.45;3.65;;;13.40;99.90;;;;;;5131142;28;20039;-58
2023/06/01 07:44:40;;;;;;;8.98;3.80;;;13.40;99.90;;;;;;5130763;28;20062;-59
2023/06/01 07:47:06;;;;;;;15.40;3.97;;;13.40;99.90;;;;;;5130671;28;20097;-59
2023/06/01 07:49:35;;;;;;;8.23;3.42;;;13.40;99.90;;;;;;5129598;28;20039;-57
2023/06/01 07:52:02;;;;;;;10.63;4.18;;;13.50;99.90;;;;;;5129395;28;20433;-59
2023/06/01 07:54:27;;;;;;;11.85;3.72;;;13.50;99.90;;;;;;5130260;28;20497;-60
2023/06/01 07:56:53;;;;;;;11.35;3.75;;;13.60;99.90;;;;;;5130999;28;20031;-58
2023/06/01 07:59:21;;;;;;;9.43;3.63;;;13.60;99.90;;;;;;5130274;28;20046;-58
2023/06/01 08:01:48;;;;;;;11.50;3.92;;;13.70;99.90;;;;;;5127064;28;20046;-57
2023/06/01 08:04:14;;;;;;;11.65;3.97;;;13.80;99.90;;;;;;5129680;28;20031;-57
2023/06/01 08:06:41;;;;;;;15.43;3.90;;;13.80;99.90;;;;;;5132431;27;20038;-58
2023/06/01 08:09:07;;;;;;;12.63;3.97;;;13.90;99.90;;;;;;5132185;27;20043;-59
2023/06/01 08:11:33;;;;;;;11.43;4.10;;;14.00;99.90;;;;;;5133085;27;20401;-57
2023/06/01 08:14:04;;;;;;;11.27;3.40;;;14.00;99.90;;;;;;5132431;27;20095;-59
2023/06/01 08:16:30;;;;;;;11.18;3.92;;;14.10;99.90;;;;;;5133844;27;20043;-58
2023/06/01 08:18:56;;;;;;;12.13;4.07;;;14.10;99.90;;;;;;5114722;27;20436;-57
2023/06/01 08:21:24;;;;;;;12.23;4.20;;;14.20;99.90;;;;;;5132658;27;20418;-58
2023/06/01 08:23:54;;;;;;;10.40;3.65;;;14.20;99.90;;;;;;5133830;27;20091;-59
2023/06/01 08:26:21;;;;;;;9.73;3.70;;;14.30;99.90;;;;;;5131996;27;20047;-59
2023/06/01 08:28:51;;;;;;;9.50;4.03;;;14.40;99.90;;;;;;5133934;27;20519;-60
2023/06/01 08:31:21;;;;;;;9.35;3.30;;;14.30;99.90;;;;;;5132261;27;20031;-58
2023/06/01 08:33:48;;;;;;;9.15;3.60;;;14.40;99.90;;;;;;5133934;27;20042;-55
2023/06/01 08:36:15;;;;;;;8.80;3.40;;;14.40;99.90;;;;;;5133926;27;20062;-60
2023/06/01 08:38:41;;;;;;;8.65;3.90;;;14.50;99.90;;;;;;5129334;27;20046;-53
2023/06/01 08:41:26;;;;;;;9.18;3.38;;;14.50;99.90;;;;;;5113410;27;20092;-59
2023/06/01 08:44:04;;;;;;;11.18;3.70;;;14.60;99.90;;;;;;5134749;27;20111;-59
2023/06/01 08:46:34;;;;;;;12.00;3.33;;;14.60;99.90;;;;;;5134210;27;20047;-59
2023/06/01 08:49:01;;;;;;;9.48;3.38;;;14.60;99.90;;;;;;5134148;27;20036;-58
2023/06/01 08:51:27;;;;;;;12.18;4.28;;;14.70;99.90;;;;;;5133444;27;20054;-58
2023/06/01 08:53:56;;;;;;;9.55;4.15;;;14.70;99.90;;;;;;5133469;27;20043;-59
2023/06/01 08:56:22;;;;;;;11.07;3.75;;;14.70;99.90;;;;;;5133677;27;20079;-59
2023/06/01 08:58:50;;;;;;;12.95;3.88;;;14.70;99.90;;;;;;5133060;27;20108;-58
2023/06/01 09:01:21;;;;;;;10.52;3.45;;;14.80;99.90;;;;;;5133023;27;20043;-58
2023/06/01 09:03:51;;;;;;;10.35;3.80;;;14.80;99.90;;;;;;5115258;27;20051;-58
2023/06/01 09:06:17;;;;;;;9.40;3.92;;;14.80;99.90;;;;;;5133739;27;20175;-59
2023/06/01 09:08:47;;;;;;;12.00;4.10;;;14.80;99.90;;;;;;5133297;27;20039;-59
2023/06/01 09:11:12;;;;;;;12.23;3.88;;;14.80;99.90;;;;;;5133927;27;21452;-58
2023/06/01 09:13:40;;;;;;;10.05;3.92;;;14.90;99.90;;;;;;5133726;27;20027;-59
2023/06/01 09:16:06;;;;;;;9.85;3.70;;;15.00;99.90;;;;;;5133538;27;20039;-58
2023/06/01 09:18:32;;;;;;;10.38;3.33;;;15.00;99.90;;;;;;5112204;27;20082;-56
2023/06/01 09:21:13;;;;;;;11.77;3.90;;;15.00;99.90;;;;;;5133417;27;20041;-60
2023/06/01 09:23:39;;;;;;;7.20;3.00;;;15.10;99.90;;;;;;5130075;27;20046;-59
2023/06/01 09:26:11;;;;;;;10.35;3.50;;;15.10;99.90;;;;;;5108879;27;20035;-59
2023/06/01 09:29:06;;;;;;;8.05;3.00;;;15.10;99.90;;;;;;5124198;27;20043;-60
2023/06/01 09:31:35;;;;;;;7.18;2.25;;;15.20;99.90;;;;;;5110187;27;20363;-59
2023/06/01 09:34:03;;;;;;;6.63;2.00;;;15.20;99.90;;;;;;5124260;27;20062;-59
2023/06/01 09:36:29;;;;;;;4.88;2.10;;;15.20;99.90;;;;;;5124590;27;20037;-57
2023/06/01 09:39:13;;;;;;;4.82;2.08;;;15.30;99.90;;;;;;5124811;27;20087;-60
2023/06/01 09:41:59;;;;;;;5.38;2.05;;;15.30;99.90;;;;;;5124415;27;20039;-59
2023/06/01 09:44:33;;;;;;;6.15;2.70;;;15.30;99.90;;;;;;5124266;27;20066;-59
2023/06/01 09:47:02;;;;;;;6.75;2.65;;;15.30;99.90;;;;;;5124611;27;20066;-58
2023/06/01 09:49:31;;;;;;;8.13;3.03;;;15.30;99.90;;;;;;5124325;27;20146;-59
2023/06/01 09:52:06;;;;;;;7.10;2.70;;;15.20;99.90;;;;;;5123592;27;20051;-58
2023/06/01 09:54:45;;;;;;;5.20;2.50;;;15.20;99.90;;;;;;5119406;27;20379;-59
2023/06/01 09:57:11;;;;;;;5.80;2.00;;;15.10;99.90;;;;;;5123533;27;20031;-58
2023/06/01 09:59:42;;;;;;;9.35;2.85;;;15.10;99.90;;;;;;5123707;27;20096;-59
2023/06/01 10:02:12;;;;;;;6.07;2.63;;;15.10;99.90;;;;;;5124787;27;20030;-59
2023/06/01 10:04:41;;;;;;;7.70;3.08;;;15.10;99.90;;;;;;5124013;27;20163;-59
2023/06/01 10:07:10;;;;;;;8.00;2.80;;;15.00;99.90;;;;;;5123106;27;20114;-59
2023/06/01 10:09:38;;;;;;;5.10;2.30;;;15.00;99.90;;;;;;5123481;27;20147;-59
2023/06/01 10:12:05;;;;;;;7.75;2.85;;;14.90;99.90;;;;;;5123748;27;20130;-59
2023/06/01 10:14:35;;;;;;;8.05;3.30;;;14.90;99.90;;;;;;5124523;27;20043;-59
2023/06/01 10:17:01;;;;;;;7.05;2.85;;;14.90;99.90;;;;;;5122417;27;20442;-59
2023/06/01 10:19:27;;;;;;;7.53;2.63;;;14.80;99.90;;;;;;5123699;27;20070;-59
2023/06/01 10:21:56;;;;;;;5.28;2.92;;;14.80;99.90;;;;;;5122561;27;20142;-58
2023/06/01 10:24:22;;;;;;;8.63;4.07;;;14.90;99.90;;;;;;5124353;27;20027;-60
2023/06/01 10:27:01;;;;;;;8.73;3.88;;;14.90;99.90;;;;;;5114726;27;20047;-59
2023/06/01 10:29:29;;;;;;;9.43;3.30;;;14.90;99.90;;;;;;5123965;27;20039;-58
2023/06/01 10:31:55;;;;;;;9.65;4.45;;;14.80;99.90;;;;;;5124180;27;20035;-59
2023/06/01 10:34:38;;;;;;;7.05;4.05;;;14.70;99.90;;;;;;5121133;27;20075;-58
2023/06/01 10:37:04;;;;;;;7.90;3.08;;;14.60;99.90;;;;;;5114040;27;20031;-59
2023/06/01 10:39:32;;;;;;;7.60;3.25;;;14.60;99.90;;;;;;5124284;27;20061;-59
2023/06/01 10:42:19;;;;;;;8.75;2.85;;;14.60;99.90;;;;;;5124210;27;20549;-59
2023/06/01 10:44:46;;;;;;;10.95;3.00;;;14.50;99.90;;;;;;5124129;27;20099;-58
2023/06/01 10:47:12;;;;;;;10.80;3.50;;;14.50;99.90;;;;;;5124469;27;20099;-58
2023/06/01 10:49:46;;;;;;;7.30;3.20;;;14.50;99.90;;;;;;5124711;27;20776;-59
2023/06/01 10:52:41;;;;;;;10.48;3.53;;;14.50;99.90;;;;;;5123768;27;20119;-59
2023/06/01 10:55:06;;;;;;;10.02;3.53;;;14.50;99.90;;;;;;5124022;27;20107;-59
2023/06/01 10:57:33;;;;;;;8.98;3.30;;;14.40;99.90;;;;;;5124523;27;20548;-58
2023/06/01 11:00:22;;;;;;;9.43;3.22;;;14.40;99.90;;;;;;5123420;27;20039;-59
2023/06/01 11:02:56;;;;;;;13.02;4.15;;;14.50;99.90;;;;;;5123993;27;20065;-58
2023/06/01 11:05:39;;;;;;;10.75;3.80;;;14.50;99.90;;;;;;5124077;27;20405;-59
2023/06/01 11:08:30;;;;;;;13.57;3.97;;;14.60;99.90;;;;;;5123386;27;20059;-59
2023/06/01 11:10:56;;;;;;;11.25;3.63;;;14.60;99.90;;;;;;5123956;27;20035;-60
2023/06/01 11:13:26;;;;;;;9.20;3.70;;;14.60;99.90;;;;;;5114223;28;20069;-58
2023/06/01 11:16:04;;;;;;;8.77;3.65;;;14.60;99.90;;;;;;5111159;28;20038;-60
2023/06/01 11:19:00;;;;;;;8.05;3.65;;;14.80;99.90;;;;;;5122670;28;20035;-60
2023/06/01 11:21:30;;;;;;;10.95;3.35;;;14.90;99.90;;;;;;5123066;28;20438;-59
2023/06/01 11:23:58;;;;;;;12.18;3.40;;;14.90;99.90;;;;;;5123165;28;20039;-57
2023/06/01 11:26:32;;;;;;;12.02;3.58;;;14.90;99.90;;;;;;5123536;27;20056;-58
2023/06/01 11:29:08;;;;;;;14.43;4.18;;;15.00;99.90;;;;;;5123209;28;20039;-59
2023/06/01 11:31:42;;;;;;;11.13;4.15;;;15.10;99.90;;;;;;5110035;28;20033;-59
2023/06/01 11:34:10;;;;;;;11.70;3.50;;;15.10;99.90;;;;;;5121993;28;20059;-59
2023/06/01 11:36:43;;;;;;;16.35;3.63;;;15.20;99.90;;;;;;5123087;28;20467;-59
2023/06/01 11:39:28;;;;;;;12.00;3.67;;;15.10;99.90;;;;;;5114682;28;20106;-59
2023/06/01 11:42:05;;;;;;;14.40;3.60;;;15.10;99.90;;;;;;5125715;27;20071;-59
2023/06/01 11:44:31;;;;;;;13.65;3.55;;;15.10;99.90;;;;;;5127243;27;20207;-58
2023/06/01 11:46:58;;;;;;;13.10;3.65;;;15.10;99.90;;;;;;5127877;27;20101;-59
2023/06/01 11:49:25;;;;;;;12.90;3.50;;;15.20;99.90;;;;;;5127717;27;20054;-59
2023/06/01 11:51:52;;;;;;;10.77;3.67;;;15.20;99.90;;;;;;5126362;27;20511;-59
2023/06/01 11:54:26;;;;;;;10.73;3.58;;;15.20;99.90;;;;;;5127558;27;20039;-59
2023/06/01 11:56:53;;;;;;;12.27;3.47;;;15.20;99.90;;;;;;5127003;27;20110;-60
2023/06/01 11:59:19;;;;;;;9.52;3.70;;;15.20;99.90;;;;;;5127357;27;20042;-60
2023/06/01 12:01:50;;;;;;;8.20;3.28;;;15.30;99.90;;;;;;5127334;27;20035;-59
2023/06/01 12:04:23;;;;;;;11.10;3.05;;;15.40;99.90;;;;;;5124410;27;20035;-59
2023/06/01 12:06:51;;;;;;;11.60;3.63;;;15.40;99.90;;;;;;5126853;27;20153;-59
2023/06/01 12:09:21;;;;;;;9.57;3.17;;;15.40;99.90;;;;;;5115670;27;20043;-60
2023/06/01 12:11:47;;;;;;;9.63;3.50;;;15.40;99.90;;;;;;5117542;27;20031;-55
2023/06/01 12:14:14;;;;;;;12.32;3.40;;;15.40;99.90;;;;;;5115205;27;20494;-60
2023/06/01 12:16:54;;;;;;;9.85;3.53;;;15.50;99.90;;;;;;5126564;27;20027;-59
2023/06/01 12:19:21;;;;;;;18.17;3.85;;;15.50;99.90;;;;;;5127437;27;20035;-60
2023/06/01 12:21:49;;;;;;;10.95;4.00;;;15.50;99.90;;;;;;5127140;27;20079;-61
2023/06/01 12:24:15;;;;;;;9.13;3.42;;;15.60;99.90;;;;;;5126194;27;20061;-59
2023/06/01 12:26:40;;;;;;;11.07;3.75;;;15.70;99.90;;;;;;5096423;27;20035;-58
2023/06/01 12:29:06;;;;;;;10.65;4.03;;;15.80;99.90;;;;;;5126277;27;20379;-58
2023/06/01 12:31:32;;;;;;;9.25;3.55;;;15.90;99.90;;;;;;5125489;27;20513;-58
2023/06/01 12:33:58;;;;;;;12.43;4.00;;;16.10;99.90;;;;;;5116029;27;20383;-59
2023/06/01 12:36:34;;;;;;;11.15;3.83;;;16.30;99.90;;;;;;5126926;27;20124;-57
2023/06/01 12:39:03;;;;;;;9.43;4.38;;;16.30;99.90;;;;;;5126416;27;20041;-57
2023/06/01 12:41:29;;;;;;;10.77;4.05;;;16.40;99.90;;;;;;5118176;27;20558;-58
2023/06/01 12:43:56;;;;;;;9.38;3.92;;;16.30;99.90;;;;;;5126846;27;20146;-57
2023/06/01 12:46:27;;;;;;;11.05;4.95;;;16.30;99.90;;;;;;5115320;27;20046;-58